sensor_id;sensor_type;location;lat;lon;timestamp;temperature;humidity
16966;DHT22;8599;47.852;12.070;2023-07-13T00:02:06;19.70;99.90
16966;DHT22;8599;47.852;12.070;2023-07-13T00:04:33;19.70;99.90
16966;DHT22;8599;47.852;12.070;2023-07-13T00:07:00;19.60;99.90
16966;DHT22;8599;47.852;12.070;2023-07-13T00:09:26;19.60;99.90
16966;DHT22;8599;47.852;12.070;2023-07-13T00:11:56;19.50;99.90
16966;DHT22;8599;47.852;12.070;2023-07-13T00:14:24;19.50;99.90
16966;DHT22;8599;47.852;12.070;2023-07-13T00:16:51;19.50;99.90
16966;DHT22;8599;47.852;12.070;2023-07-13T00:19:18;19.50;99.90
16966;DHT22;8599;47.852;12.070;2023-07-13T00:21:45;19.50;99.90
16966;DHT22;8599;47.852;12.070;2023-07-13T00:24:14;19.50;99.90
16966;DHT22;8599;47.852;12.070;2023-07-13T00:26:44;19.50;99.90
16966;DHT22;8599;47.852;12.070;2023-07-13T00:29:12;19.50;99.90
16966;DHT22;8599;47.852;12.070;2023-07-13T00:31:39;19.50;99.90
16966;DHT22;8599;47.852;12.070;2023-07-13T00:34:06;19.50;99.90
16966;DHT22;8599;47.852;12.070;2023-07-13T00:36:33;19.60;99.90
16966;DHT22;8599;47.852;12.070;2023-07-13T00:39:00;19.50;99.90
16966;DHT22;8599;47.852;12.070;2023-07-13T00:41:29;19.60;99.90
16966;DHT22;8599;47.852;12.070;2023-07-13T00:43:56;19.60;99.90
16966;DHT22;8599;47.852;12.070;2023-07-13T00:46:26;19.60;99.90
16966;DHT22;8599;47.852;12.070;2023-07-13T00:48:54;19.70;99.90
16966;DHT22;8599;47.852;12.070;2023-07-13T00:51:27;19.80;99.90
16966;DHT22;8599;47.852;12.070;2023-07-13T00:53:57;19.80;99.90
16966;DHT22;8599;47.852;12.070;2023-07-13T00:56:26;19.80;99.90
16966;DHT22;8599;47.852;12.070;2023-07-13T00:58:53;19.70;99.90
16966;DHT22;8599;47.852;12.070;2023-07-13T01:01:21;19.60;99.90
16966;DHT22;8599;47.852;12.070;2023-07-13T01:03:49;19.70;99.90
16966;DHT22;8599;47.852;12.070;2023-07-13T01:06:16;19.70;99.90
16966;DHT22;8599;47.852;12.070;2023-07-13T01:08:44;19.80;99.90
16966;DHT22;8599;47.852;12.070;2023-07-13T01:11:10;19.60;99.90
16966;DHT22;8599;47.852;12.070;2023-07-13T01:13:37;19.60;99.90
16966;DHT22;8599;47.852;12.070;2023-07-13T01:16:13;19.70;99.90
16966;DHT22;8599;47.852;12.070;2023-07-13T01:18:41;19.60;99.90
16966;DHT22;8599;47.852;12.070;2023-07-13T01:21:09;19.50;99.90
16966;DHT22;8599;47.852;12.070;2023-07-13T01:23:36;19.40;99.90
16966;DHT22;8599;47.852;12.070;2023-07-13T01:26:02;19.50;99.90
16966;DHT22;8599;47.852;12.070;2023-07-13T01:28:30;19.50;99.90
16966;DHT22;8599;47.852;12.070;2023-07-13T01:30:58;19.50;99.90
16966;DHT22;8599;47.852;12.070;2023-07-13T01:33:26;19.50;99.90
16966;DHT22;8599;47.852;12.070;2023-07-13T01:35:52;19.40;99.90
16966;DHT22;8599;47.852;12.070;2023-07-13T01:38:22;19.30;99.90
16966;DHT22;8599;47.852;12.070;2023-07-13T01:40:50;19.40;99.90
16966;DHT22;8599;47.852;12.070;2023-07-13T01:43:17;19.40;99.90
16966;DHT22;8599;47.852;12.070;2023-07-13T01:45:44;19.30;99.90
16966;DHT22;8599;47.852;12.070;2023-07-13T01:48:11;19.30;99.90
16966;DHT22;8599;47.852;12.070;2023-07-13T01:50:38;19.30;99.90
16966;DHT22;8599;47.852;12.070;2023-07-13T01:53:05;19.30;99.90
16966;DHT22;8599;47.852;12.070;2023-07-13T01:55:34;19.30;99.90
16966;DHT22;8599;47.852;12.070;2023-07-13T01:58:01;19.50;99.90
16966;DHT22;8599;47.852;12.070;2023-07-13T02:00:28;19.50;99.90
16966;DHT22;8599;47.852;12.070;2023-07-13T02:02:55;19.50;99.90
16966;DHT22;8599;47.852;12.070;2023-07-13T02:05:22;19.50;99.90
16966;DHT22;8599;47.852;12.070;2023-07-13T02:07:49;19.60;99.90
16966;DHT22;8599;47.852;12.070;2023-07-13T02:10:16;19.60;99.90
16966;DHT22;8599;47.852;12.070;2023-07-13T02:12:44;19.60;99.90
16966;DHT22;8599;47.852;12.070;2023-07-13T02:15:11;19.70;99.90
16966;DHT22;8599;47.852;12.070;2023-07-13T02:17:38;19.70;99.90
16966;DHT22;8599;47.852;12.070;2023-07-13T02:20:06;19.60;99.90
16966;DHT22;8599;47.852;12.070;2023-07-13T02:22:33;19.60;99.90
16966;DHT22;8599;47.852;12.070;2023-07-13T02:25:00;19.50;99.90
16966;DHT22;8599;47.852;12.070;2023-07-13T02:27:27;19.40;99.90
16966;DHT22;8599;47.852;12.070;2023-07-13T02:29:55;19.30;99.90
16966;DHT22;8599;47.852;12.070;2023-07-13T02:32:22;19.20;99.90
16966;DHT22;8599;47.852;12.070;2023-07-13T02:34:50;19.30;99.90
16966;DHT22;8599;47.852;12.070;2023-07-13T02:37:17;19.30;99.90
16966;DHT22;8599;47.852;12.070;2023-07-13T02:39:44;19.30;99.90
16966;DHT22;8599;47.852;12.070;2023-07-13T02:42:11;19.40;99.90
16966;DHT22;8599;47.852;12.070;2023-07-13T02:44:38;19.40;99.90
16966;DHT22;8599;47.852;12.070;2023-07-13T02:47:06;19.40;99.90
16966;DHT22;8599;47.852;12.070;2023-07-13T02:49:33;19.30;99.90
16966;DHT22;8599;47.852;12.070;2023-07-13T02:52:00;19.20;99.90
16966;DHT22;8599;47.852;12.070;2023-07-13T02:54:27;19.10;99.90
16966;DHT22;8599;47.852;12.070;2023-07-13T02:56:53;19.10;99.90
16966;DHT22;8599;47.852;12.070;2023-07-13T02:59:20;19.10;99.90
16966;DHT22;8599;47.852;12.070;2023-07-13T03:01:47;19.10;99.90
16966;DHT22;8599;47.852;12.070;2023-07-13T03:04:15;19.10;99.90
16966;DHT22;8599;47.852;12.070;2023-07-13T03:06:45;19.20;99.90
16966;DHT22;8599;47.852;12.070;2023-07-13T03:09:11;19.10;99.90
16966;DHT22;8599;47.852;12.070;2023-07-13T03:11:39;19.10;99.90
16966;DHT22;8599;47.852;12.070;2023-07-13T03:14:06;19.20;99.90
16966;DHT22;8599;47.852;12.070;2023-07-13T03:16:33;19.20;99.90
16966;DHT22;8599;47.852;12.070;2023-07-13T03:19:00;19.20;99.90
16966;DHT22;8599;47.852;12.070;2023-07-13T03:21:28;19.30;99.90
16966;DHT22;8599;47.852;12.070;2023-07-13T03:23:55;19.30;99.90
16966;DHT22;8599;47.852;12.070;2023-07-13T03:26:22;19.30;99.90
16966;DHT22;8599;47.852;12.070;2023-07-13T03:28:49;19.30;99.90
16966;DHT22;8599;47.852;12.070;2023-07-13T03:31:18;19.30;99.90
16966;DHT22;8599;47.852;12.070;2023-07-13T03:33:46;19.30;99.90
16966;DHT22;8599;47.852;12.070;2023-07-13T03:36:15;19.30;99.90
16966;DHT22;8599;47.852;12.070;2023-07-13T03:38:46;19.20;99.90
16966;DHT22;8599;47.852;12.070;2023-07-13T03:41:13;19.10;99.90
16966;DHT22;8599;47.852;12.070;2023-07-13T03:43:40;19.00;99.90
16966;DHT22;8599;47.852;12.070;2023-07-13T03:46:07;19.00;99.90
16966;DHT22;8599;47.852;12.070;2023-07-13T03:48:34;18.90;99.90
16966;DHT22;8599;47.852;12.070;2023-07-13T03:51:01;19.00;99.90
16966;DHT22;8599;47.852;12.070;2023-07-13T03:53:27;19.00;99.90
16966;DHT22;8599;47.852;12.070;2023-07-13T03:55:56;19.00;99.90
16966;DHT22;8599;47.852;12.070;2023-07-13T03:58:29;19.00;99.90
16966;DHT22;8599;47.852;12.070;2023-07-13T04:00:56;18.90;99.90
16966;DHT22;8599;47.852;12.070;2023-07-13T04:03:24;19.00;99.90
16966;DHT22;8599;47.852;12.070;2023-07-13T04:05:54;19.00;99.90
16966;DHT22;8599;47.852;12.070;2023-07-13T04:08:24;19.00;99.90
16966;DHT22;8599;47.852;12.070;2023-07-13T04:10:50;18.90;99.90
16966;DHT22;8599;47.852;12.070;2023-07-13T04:13:18;19.00;99.90
16966;DHT22;8599;47.852;12.070;2023-07-13T04:15:45;18.90;99.90
16966;DHT22;8599;47.852;12.070;2023-07-13T04:18:12;18.90;99.90
16966;DHT22;8599;47.852;12.070;2023-07-13T04:20:39;18.80;99.90
16966;DHT22;8599;47.852;12.070;2023-07-13T04:23:06;18.80;99.90
16966;DHT22;8599;47.852;12.070;2023-07-13T04:25:33;18.80;99.90
16966;DHT22;8599;47.852;12.070;2023-07-13T04:28:00;18.80;99.90
16966;DHT22;8599;47.852;12.070;2023-07-13T04:30:28;18.80;99.90
16966;DHT22;8599;47.852;12.070;2023-07-13T04:32:55;18.80;99.90
16966;DHT22;8599;47.852;12.070;2023-07-13T04:35:22;18.90;99.90
16966;DHT22;8599;47.852;12.070;2023-07-13T04:37:49;18.80;99.90
16966;DHT22;8599;47.852;12.070;2023-07-13T04:40:16;18.90;99.90
16966;DHT22;8599;47.852;12.070;2023-07-13T04:42:44;18.90;99.90
16966;DHT22;8599;47.852;12.070;2023-07-13T04:45:11;18.90;99.90
16966;DHT22;8599;47.852;12.070;2023-07-13T04:47:39;18.90;99.90
16966;DHT22;8599;47.852;12.070;2023-07-13T04:50:08;18.90;99.90
16966;DHT22;8599;47.852;12.070;2023-07-13T04:52:36;19.00;99.90
16966;DHT22;8599;47.852;12.070;2023-07-13T04:55:04;19.00;99.90
16966;DHT22;8599;47.852;12.070;2023-07-13T04:57:31;19.00;99.90
16966;DHT22;8599;47.852;12.070;2023-07-13T04:59:58;19.00;99.90
16966;DHT22;8599;47.852;12.070;2023-07-13T05:02:26;19.00;99.90
16966;DHT22;8599;47.852;12.070;2023-07-13T05:04:55;19.00;99.90
16966;DHT22;8599;47.852;12.070;2023-07-13T05:07:22;19.10;99.90
16966;DHT22;8599;47.852;12.070;2023-07-13T05:09:48;19.00;99.90
16966;DHT22;8599;47.852;12.070;2023-07-13T05:12:15;19.00;99.90
16966;DHT22;8599;47.852;12.070;2023-07-13T05:14:42;18.90;99.90
16966;DHT22;8599;47.852;12.070;2023-07-13T05:17:09;19.00;99.90
16966;DHT22;8599;47.852;12.070;2023-07-13T05:19:36;18.90;99.90
16966;DHT22;8599;47.852;12.070;2023-07-13T05:22:05;19.00;99.90
16966;DHT22;8599;47.852;12.070;2023-07-13T05:24:32;19.00;99.90
16966;DHT22;8599;47.852;12.070;2023-07-13T05:26:59;19.10;99.90
16966;DHT22;8599;47.852;12.070;2023-07-13T05:29:26;19.10;99.90
16966;DHT22;8599;47.852;12.070;2023-07-13T05:31:53;19.10;99.90
16966;DHT22;8599;47.852;12.070;2023-07-13T05:34:20;19.10;99.90
16966;DHT22;8599;47.852;12.070;2023-07-13T05:36:46;19.10;99.90
16966;DHT22;8599;47.852;12.070;2023-07-13T05:39:15;19.20;99.90
16966;DHT22;8599;47.852;12.070;2023-07-13T05:41:42;19.20;99.90
16966;DHT22;8599;47.852;12.070;2023-07-13T05:44:09;19.20;99.90
16966;DHT22;8599;47.852;12.070;2023-07-13T05:46:35;19.20;99.90
16966;DHT22;8599;47.852;12.070;2023-07-13T05:49:02;19.20;99.90
16966;DHT22;8599;47.852;12.070;2023-07-13T05:51:29;19.30;99.90
16966;DHT22;8599;47.852;12.070;2023-07-13T05:53:56;19.40;99.90
16966;DHT22;8599;47.852;12.070;2023-07-13T05:56:24;19.40;99.90
16966;DHT22;8599;47.852;12.070;2023-07-13T05:58:52;19.40;99.90
16966;DHT22;8599;47.852;12.070;2023-07-13T06:01:18;19.50;99.90
16966;DHT22;8599;47.852;12.070;2023-07-13T06:03:46;19.40;99.90
16966;DHT22;8599;47.852;12.070;2023-07-13T06:06:13;19.40;99.90
16966;DHT22;8599;47.852;12.070;2023-07-13T06:08:40;19.40;99.90
16966;DHT22;8599;47.852;12.070;2023-07-13T06:11:10;19.40;99.90
16966;DHT22;8599;47.852;12.070;2023-07-13T06:13:40;19.40;99.90
16966;DHT22;8599;47.852;12.070;2023-07-13T06:16:07;19.40;99.90
16966;DHT22;8599;47.852;12.070;2023-07-13T06:18:35;19.40;99.90
16966;DHT22;8599;47.852;12.070;2023-07-13T06:21:06;19.40;99.90
16966;DHT22;8599;47.852;12.070;2023-07-13T06:23:33;19.40;99.90
16966;DHT22;8599;47.852;12.070;2023-07-13T06:26:00;19.50;99.90
16966;DHT22;8599;47.852;12.070;2023-07-13T06:28:27;19.50;99.90
16966;DHT22;8599;47.852;12.070;2023-07-13T06:30:56;19.60;99.90
16966;DHT22;8599;47.852;12.070;2023-07-13T06:33:22;19.60;99.90
16966;DHT22;8599;47.852;12.070;2023-07-13T06:35:49;19.60;99.90
16966;DHT22;8599;47.852;12.070;2023-07-13T06:38:16;19.60;99.90
16966;DHT22;8599;47.852;12.070;2023-07-13T06:40:43;19.60;99.90
16966;DHT22;8599;47.852;12.070;2023-07-13T06:43:10;19.50;99.90
16966;DHT22;8599;47.852;12.070;2023-07-13T06:45:41;19.50;99.90
16966;DHT22;8599;47.852;12.070;2023-07-13T06:48:09;19.50;99.90
16966;DHT22;8599;47.852;12.070;2023-07-13T06:50:36;19.50;99.90
16966;DHT22;8599;47.852;12.070;2023-07-13T06:53:03;19.50;99.90
16966;DHT22;8599;47.852;12.070;2023-07-13T06:55:30;19.50;99.90
16966;DHT22;8599;47.852;12.070;2023-07-13T06:57:57;19.60;99.90
16966;DHT22;8599;47.852;12.070;2023-07-13T07:00:24;19.70;99.90
16966;DHT22;8599;47.852;12.070;2023-07-13T07:02:51;19.70;99.90
16966;DHT22;8599;47.852;12.070;2023-07-13T07:05:19;19.80;99.90
16966;DHT22;8599;47.852;12.070;2023-07-13T07:07:47;19.80;99.90
16966;DHT22;8599;47.852;12.070;2023-07-13T07:10:14;19.90;99.90
16966;DHT22;8599;47.852;12.070;2023-07-13T07:12:41;20.00;99.90
16966;DHT22;8599;47.852;12.070;2023-07-13T07:15:08;20.00;99.90
16966;DHT22;8599;47.852;12.070;2023-07-13T07:17:35;20.00;99.90
16966;DHT22;8599;47.852;12.070;2023-07-13T07:20:02;19.90;99.90
16966;DHT22;8599;47.852;12.070;2023-07-13T07:22:31;20.00;99.90
16966;DHT22;8599;47.852;12.070;2023-07-13T07:24:58;20.00;99.90
16966;DHT22;8599;47.852;12.070;2023-07-13T07:27:25;20.00;99.90
16966;DHT22;8599;47.852;12.070;2023-07-13T07:29:52;20.00;99.90
16966;DHT22;8599;47.852;12.070;2023-07-13T07:32:19;20.00;99.90
16966;DHT22;8599;47.852;12.070;2023-07-13T07:34:46;20.10;99.90
16966;DHT22;8599;47.852;12.070;2023-07-13T07:37:14;20.10;99.90
16966;DHT22;8599;47.852;12.070;2023-07-13T07:39:42;20.20;99.90
16966;DHT22;8599;47.852;12.070;2023-07-13T07:42:09;20.30;99.90
16966;DHT22;8599;47.852;12.070;2023-07-13T07:44:36;20.40;99.90
16966;DHT22;8599;47.852;12.070;2023-07-13T07:47:03;20.30;99.90
16966;DHT22;8599;47.852;12.070;2023-07-13T07:49:30;20.30;99.90
16966;DHT22;8599;47.852;12.070;2023-07-13T07:51:57;20.30;99.90
16966;DHT22;8599;47.852;12.070;2023-07-13T07:54:24;20.40;99.90
16966;DHT22;8599;47.852;12.070;2023-07-13T07:56:52;20.40;99.90
16966;DHT22;8599;47.852;12.070;2023-07-13T07:59:19;20.40;99.90
16966;DHT22;8599;47.852;12.070;2023-07-13T08:01:46;20.40;99.90
16966;DHT22;8599;47.852;12.070;2023-07-13T08:04:15;20.30;99.90
16966;DHT22;8599;47.852;12.070;2023-07-13T08:06:42;20.30;99.90
16966;DHT22;8599;47.852;12.070;2023-07-13T08:09:09;20.30;99.90
16966;DHT22;8599;47.852;12.070;2023-07-13T08:11:36;20.50;99.90
16966;DHT22;8599;47.852;12.070;2023-07-13T08:14:04;20.50;99.90
16966;DHT22;8599;47.852;12.070;2023-07-13T08:16:31;20.50;99.90
16966;DHT22;8599;47.852;12.070;2023-07-13T08:18:58;20.50;99.90
16966;DHT22;8599;47.852;12.070;2023-07-13T08:21:25;20.50;99.90
16966;DHT22;8599;47.852;12.070;2023-07-13T08:23:52;20.60;99.90
16966;DHT22;8599;47.852;12.070;2023-07-13T08:26:19;20.60;99.90
16966;DHT22;8599;47.852;12.070;2023-07-13T08:28:46;20.80;99.90
16966;DHT22;8599;47.852;12.070;2023-07-13T08:31:14;20.80;99.90
16966;DHT22;8599;47.852;12.070;2023-07-13T08:33:41;20.90;99.90
16966;DHT22;8599;47.852;12.070;2023-07-13T08:36:08;21.00;99.90
16966;DHT22;8599;47.852;12.070;2023-07-13T08:38:35;21.10;99.90
16966;DHT22;8599;47.852;12.070;2023-07-13T08:41:11;20.90;99.90
16966;DHT22;8599;47.852;12.070;2023-07-13T08:43:38;20.90;99.90
16966;DHT22;8599;47.852;12.070;2023-07-13T08:46:09;21.00;99.90
16966;DHT22;8599;47.852;12.070;2023-07-13T08:48:44;20.90;99.90
16966;DHT22;8599;47.852;12.070;2023-07-13T08:51:24;20.90;99.90
16966;DHT22;8599;47.852;12.070;2023-07-13T08:53:57;20.90;99.90
16966;DHT22;8599;47.852;12.070;2023-07-13T08:56:27;21.00;99.90
16966;DHT22;8599;47.852;12.070;2023-07-13T08:58:57;21.00;99.90
16966;DHT22;8599;47.852;12.070;2023-07-13T09:01:29;21.00;99.90
16966;DHT22;8599;47.852;12.070;2023-07-13T09:04:04;20.90;99.90
16966;DHT22;8599;47.852;12.070;2023-07-13T09:06:39;20.70;99.90
16966;DHT22;8599;47.852;12.070;2023-07-13T09:09:13;20.70;99.90
16966;DHT22;8599;47.852;12.070;2023-07-13T09:11:46;20.50;99.90
16966;DHT22;8599;47.852;12.070;2023-07-13T09:14:32;20.50;99.90
16966;DHT22;8599;47.852;12.070;2023-07-13T09:17:00;20.40;99.90
16966;DHT22;8599;47.852;12.070;2023-07-13T09:19:31;20.30;99.90
16966;DHT22;8599;47.852;12.070;2023-07-13T09:22:01;20.30;99.90
16966;DHT22;8599;47.852;12.070;2023-07-13T09:24:37;20.30;99.90
16966;DHT22;8599;47.852;12.070;2023-07-13T09:27:12;20.30;99.90
16966;DHT22;8599;47.852;12.070;2023-07-13T09:29:45;20.30;99.90
16966;DHT22;8599;47.852;12.070;2023-07-13T09:32:14;20.20;99.90
16966;DHT22;8599;47.852;12.070;2023-07-13T09:34:52;20.20;99.90
16966;DHT22;8599;47.852;12.070;2023-07-13T09:37:21;20.20;99.90
16966;DHT22;8599;47.852;12.070;2023-07-13T09:39:49;20.20;99.90
16966;DHT22;8599;47.852;12.070;2023-07-13T09:42:19;20.20;99.90
16966;DHT22;8599;47.852;12.070;2023-07-13T09:44:53;20.00;99.90
16966;DHT22;8599;47.852;12.070;2023-07-13T09:47:22;19.90;99.90
16966;DHT22;8599;47.852;12.070;2023-07-13T09:49:55;19.90;99.90
16966;DHT22;8599;47.852;12.070;2023-07-13T09:52:24;20.00;99.90
16966;DHT22;8599;47.852;12.070;2023-07-13T09:54:52;20.10;99.90
16966;DHT22;8599;47.852;12.070;2023-07-13T09:57:25;20.10;99.90
16966;DHT22;8599;47.852;12.070;2023-07-13T09:59:53;19.90;99.90
16966;DHT22;8599;47.852;12.070;2023-07-13T10:02:27;19.90;99.90
16966;DHT22;8599;47.852;12.070;2023-07-13T10:05:00;19.80;99.90
16966;DHT22;8599;47.852;12.070;2023-07-13T10:07:29;19.70;99.90
16966;DHT22;8599;47.852;12.070;2023-07-13T10:09:59;19.70;99.90
16966;DHT22;8599;47.852;12.070;2023-07-13T10:12:28;19.60;99.90
16966;DHT22;8599;47.852;12.070;2023-07-13T10:14:57;19.60;99.90
16966;DHT22;8599;47.852;12.070;2023-07-13T10:17:30;19.60;99.90
16966;DHT22;8599;47.852;12.070;2023-07-13T10:20:02;19.60;99.90
16966;DHT22;8599;47.852;12.070;2023-07-13T10:22:37;19.70;99.90
16966;DHT22;8599;47.852;12.070;2023-07-13T10:25:14;19.80;99.90
16966;DHT22;8599;47.852;12.070;2023-07-13T10:27:44;19.80;99.90
16966;DHT22;8599;47.852;12.070;2023-07-13T10:30:14;19.90;99.90
16966;DHT22;8599;47.852;12.070;2023-07-13T10:32:43;19.80;99.90
16966;DHT22;8599;47.852;12.070;2023-07-13T10:35:14;19.90;99.90
16966;DHT22;8599;47.852;12.070;2023-07-13T10:37:47;19.90;99.90
16966;DHT22;8599;47.852;12.070;2023-07-13T10:40:19;19.80;99.90
16966;DHT22;8599;47.852;12.070;2023-07-13T10:42:49;19.80;99.90
16966;DHT22;8599;47.852;12.070;2023-07-13T10:45:18;19.70;99.90
16966;DHT22;8599;47.852;12.070;2023-07-13T10:47:47;19.60;99.90
16966;DHT22;8599;47.852;12.070;2023-07-13T10:50:19;19.60;99.90
16966;DHT22;8599;47.852;12.070;2023-07-13T10:52:48;19.60;99.90
16966;DHT22;8599;47.852;12.070;2023-07-13T10:55:35;19.60;99.90
16966;DHT22;8599;47.852;12.070;2023-07-13T10:58:12;19.60;99.90
16966;DHT22;8599;47.852;12.070;2023-07-13T11:00:46;19.60;99.90
16966;DHT22;8599;47.852;12.070;2023-07-13T11:03:16;19.60;99.90
16966;DHT22;8599;47.852;12.070;2023-07-13T11:05:48;19.50;99.90
16966;DHT22;8599;47.852;12.070;2023-07-13T11:08:20;19.50;99.90
16966;DHT22;8599;47.852;12.070;2023-07-13T11:10:52;19.60;99.90
16966;DHT22;8599;47.852;12.070;2023-07-13T11:13:55;19.70;99.90
16966;DHT22;8599;47.852;12.070;2023-07-13T11:16:44;19.70;99.90
16966;DHT22;8599;47.852;12.070;2023-07-13T11:19:27;19.70;99.90
16966;DHT22;8599;47.852;12.070;2023-07-13T11:22:13;19.80;99.90
16966;DHT22;8599;47.852;12.070;2023-07-13T11:24:58;19.90;99.90
16966;DHT22;8599;47.852;12.070;2023-07-13T11:27:36;20.00;99.90
16966;DHT22;8599;47.852;12.070;2023-07-13T11:30:25;20.00;99.90
16966;DHT22;8599;47.852;12.070;2023-07-13T11:33:11;20.00;99.90
16966;DHT22;8599;47.852;12.070;2023-07-13T11:35:45;20.10;99.90
16966;DHT22;8599;47.852;12.070;2023-07-13T11:38:18;19.90;99.90
16966;DHT22;8599;47.852;12.070;2023-07-13T11:40:47;19.90;99.90
16966;DHT22;8599;47.852;12.070;2023-07-13T11:43:15;19.90;99.90
16966;DHT22;8599;47.852;12.070;2023-07-13T11:45:43;19.80;99.90
16966;DHT22;8599;47.852;12.070;2023-07-13T11:48:21;19.90;99.90
16966;DHT22;8599;47.852;12.070;2023-07-13T11:50:51;20.10;99.90
16966;DHT22;8599;47.852;12.070;2023-07-13T11:53:22;20.30;99.90
16966;DHT22;8599;47.852;12.070;2023-07-13T11:55:49;20.50;99.90
16966;DHT22;8599;47.852;12.070;2023-07-13T11:58:21;20.70;99.90
16966;DHT22;8599;47.852;12.070;2023-07-13T12:00:49;20.80;99.90
16966;DHT22;8599;47.852;12.070;2023-07-13T12:03:22;21.00;99.90
16966;DHT22;8599;47.852;12.070;2023-07-13T12:05:58;21.20;99.90
16966;DHT22;8599;47.852;12.070;2023-07-13T12:08:27;21.40;99.90
16966;DHT22;8599;47.852;12.070;2023-07-13T12:10:59;21.50;99.90
16966;DHT22;8599;47.852;12.070;2023-07-13T12:13:35;21.60;99.90
16966;DHT22;8599;47.852;12.070;2023-07-13T12:16:11;21.60;99.90
16966;DHT22;8599;47.852;12.070;2023-07-13T12:18:38;21.90;99.90
16966;DHT22;8599;47.852;12.070;2023-07-13T12:21:09;21.90;99.90
16966;DHT22;8599;47.852;12.070;2023-07-13T12:23:43;21.90;99.90
16966;DHT22;8599;47.852;12.070;2023-07-13T12:26:11;21.70;99.90
16966;DHT22;8599;47.852;12.070;2023-07-13T12:28:44;21.70;99.90
16966;DHT22;8599;47.852;12.070;2023-07-13T12:31:24;21.90;99.90
16966;DHT22;8599;47.852;12.070;2023-07-13T12:33:56;22.10;99.90
16966;DHT22;8599;47.852;12.070;2023-07-13T12:36:23;22.20;99.90
16966;DHT22;8599;47.852;12.070;2023-07-13T12:38:52;22.30;99.90
16966;DHT22;8599;47.852;12.070;2023-07-13T12:41:19;22.40;99.90
16966;DHT22;8599;47.852;12.070;2023-07-13T12:43:46;22.70;99.90
16966;DHT22;8599;47.852;12.070;2023-07-13T12:46:18;22.80;99.90
16966;DHT22;8599;47.852;12.070;2023-07-13T12:48:48;22.80;99.90
16966;DHT22;8599;47.852;12.070;2023-07-13T12:51:16;23.00;99.90
16966;DHT22;8599;47.852;12.070;2023-07-13T12:53:48;23.00;99.90
16966;DHT22;8599;47.852;12.070;2023-07-13T12:56:21;23.00;99.90
16966;DHT22;8599;47.852;12.070;2023-07-13T12:58:50;23.10;99.90
16966;DHT22;8599;47.852;12.070;2023-07-13T13:01:21;23.40;99.90
16966;DHT22;8599;47.852;12.070;2023-07-13T13:03:50;23.70;99.90
16966;DHT22;8599;47.852;12.070;2023-07-13T13:06:22;23.90;99.90
16966;DHT22;8599;47.852;12.070;2023-07-13T13:08:51;24.20;99.90
16966;DHT22;8599;47.852;12.070;2023-07-13T13:11:21;24.50;99.90
16966;DHT22;8599;47.852;12.070;2023-07-13T13:13:48;24.80;99.80
16966;DHT22;8599;47.852;12.070;2023-07-13T13:16:19;25.10;99.10
16966;DHT22;8599;47.852;12.070;2023-07-13T13:18:47;25.00;96.60
16966;DHT22;8599;47.852;12.070;2023-07-13T13:21:14;25.20;97.10
16966;DHT22;8599;47.852;12.070;2023-07-13T13:23:41;25.40;97.10
16966;DHT22;8599;47.852;12.070;2023-07-13T13:26:10;25.50;96.20
16966;DHT22;8599;47.852;12.070;2023-07-13T13:28:39;25.60;95.70
16966;DHT22;8599;47.852;12.070;2023-07-13T13:31:08;25.80;95.90
16966;DHT22;8599;47.852;12.070;2023-07-13T13:33:39;26.10;96.20
16966;DHT22;8599;47.852;12.070;2023-07-13T13:36:14;26.20;96.50
16966;DHT22;8599;47.852;12.070;2023-07-13T13:38:42;25.90;96.80
16966;DHT22;8599;47.852;12.070;2023-07-13T13:41:10;25.60;95.10
16966;DHT22;8599;47.852;12.070;2023-07-13T13:43:40;25.90;96.10
16966;DHT22;8599;47.852;12.070;2023-07-13T13:46:16;25.80;95.60
16966;DHT22;8599;47.852;12.070;2023-07-13T13:48:44;26.10;95.10
16966;DHT22;8599;47.852;12.070;2023-07-13T13:51:16;26.40;94.80
16966;DHT22;8599;47.852;12.070;2023-07-13T13:53:43;26.30;95.50
16966;DHT22;8599;47.852;12.070;2023-07-13T13:56:11;26.40;96.40
16966;DHT22;8599;47.852;12.070;2023-07-13T13:58:39;26.60;95.90
16966;DHT22;8599;47.852;12.070;2023-07-13T14:01:12;26.50;95.20
16966;DHT22;8599;47.852;12.070;2023-07-13T14:03:40;26.60;95.20
16966;DHT22;8599;47.852;12.070;2023-07-13T14:06:08;26.40;96.10
16966;DHT22;8599;47.852;12.070;2023-07-13T14:08:35;26.30;96.20
16966;DHT22;8599;47.852;12.070;2023-07-13T14:11:02;26.70;95.60
16966;DHT22;8599;47.852;12.070;2023-07-13T14:13:35;27.00;94.90
16966;DHT22;8599;47.852;12.070;2023-07-13T14:16:08;26.60;94.50
16966;DHT22;8599;47.852;12.070;2023-07-13T14:18:35;26.40;95.10
16966;DHT22;8599;47.852;12.070;2023-07-13T14:21:02;26.60;96.00
16966;DHT22;8599;47.852;12.070;2023-07-13T14:23:29;26.60;95.20
16966;DHT22;8599;47.852;12.070;2023-07-13T14:25:56;26.80;95.90
16966;DHT22;8599;47.852;12.070;2023-07-13T14:28:24;27.10;94.40
16966;DHT22;8599;47.852;12.070;2023-07-13T14:30:52;26.90;94.00
16966;DHT22;8599;47.852;12.070;2023-07-13T14:33:21;27.00;95.60
16966;DHT22;8599;47.852;12.070;2023-07-13T14:35:49;27.20;93.80
16966;DHT22;8599;47.852;12.070;2023-07-13T14:38:18;26.70;94.40
16966;DHT22;8599;47.852;12.070;2023-07-13T14:40:46;26.90;94.80
16966;DHT22;8599;47.852;12.070;2023-07-13T14:43:13;27.50;94.90
16966;DHT22;8599;47.852;12.070;2023-07-13T14:45:42;27.70;93.40
16966;DHT22;8599;47.852;12.070;2023-07-13T14:48:14;27.90;94.10
16966;DHT22;8599;47.852;12.070;2023-07-13T14:50:43;27.90;94.00
16966;DHT22;8599;47.852;12.070;2023-07-13T14:53:11;28.10;93.10
16966;DHT22;8599;47.852;12.070;2023-07-13T14:55:38;27.80;93.80
16966;DHT22;8599;47.852;12.070;2023-07-13T14:58:06;27.20;94.10
16966;DHT22;8599;47.852;12.070;2023-07-13T15:00:33;27.40;94.10
16966;DHT22;8599;47.852;12.070;2023-07-13T15:03:00;27.50;94.30
16966;DHT22;8599;47.852;12.070;2023-07-13T15:05:30;27.70;93.90
16966;DHT22;8599;47.852;12.070;2023-07-13T15:08:00;27.60;94.20
16966;DHT22;8599;47.852;12.070;2023-07-13T15:10:30;27.80;95.30
16966;DHT22;8599;47.852;12.070;2023-07-13T15:12:59;27.30;93.80
16966;DHT22;8599;47.852;12.070;2023-07-13T15:15:29;27.20;94.90
16966;DHT22;8599;47.852;12.070;2023-07-13T15:17:56;26.80;95.70
16966;DHT22;8599;47.852;12.070;2023-07-13T15:20:27;26.60;95.70
16966;DHT22;8599;47.852;12.070;2023-07-13T15:22:55;26.70;95.90
16966;DHT22;8599;47.852;12.070;2023-07-13T15:25:29;26.70;96.40
16966;DHT22;8599;47.852;12.070;2023-07-13T15:27:57;26.30;96.20
16966;DHT22;8599;47.852;12.070;2023-07-13T15:30:27;25.80;96.50
16966;DHT22;8599;47.852;12.070;2023-07-13T15:32:55;25.30;97.60
16966;DHT22;8599;47.852;12.070;2023-07-13T15:35:26;25.20;98.40
16966;DHT22;8599;47.852;12.070;2023-07-13T15:37:53;25.20;98.60
16966;DHT22;8599;47.852;12.070;2023-07-13T15:40:20;25.10;98.70
16966;DHT22;8599;47.852;12.070;2023-07-13T15:42:50;25.10;99.20